createdAt,value
2022-10-25T00:00:58.607Z,3.92
2022-10-25T00:03:26.399Z,5.47
2022-10-25T00:05:54.605Z,5.28
2022-10-25T00:08:22.479Z,2.72
2022-10-25T00:10:50.190Z,4.80
2022-10-25T00:13:17.905Z,4.40
2022-10-25T00:15:45.645Z,6.57
2022-10-25T00:18:14.795Z,5.30
2022-10-25T00:20:42.454Z,2.20
2022-10-25T00:23:10.066Z,2.88
2022-10-25T00:25:37.962Z,6.00
2022-10-25T00:28:06.244Z,2.88
2022-10-25T00:30:34.385Z,7.15
2022-10-25T00:33:02.019Z,5.97
2022-10-25T00:35:31.239Z,3.97
2022-10-25T00:38:00.761Z,2.60
2022-10-25T00:40:28.618Z,5.00
2022-10-25T00:42:56.254Z,3.05
2022-10-25T00:45:25.857Z,6.93
2022-10-25T00:47:57.998Z,3.20
2022-10-25T00:50:40.918Z,5.43
2022-10-25T00:53:12.337Z,4.15
2022-10-25T00:55:45.489Z,5.03
2022-10-25T00:58:18.156Z,5.50
2022-10-25T01:00:46.715Z,2.25
2022-10-25T01:03:15.734Z,7.47
2022-10-25T01:05:45.894Z,4.85
2022-10-25T01:08:14.147Z,2.05
2022-10-25T01:10:42.381Z,4.38
2022-10-25T01:13:10.096Z,5.70
2022-10-25T01:15:45.836Z,3.03
2022-10-25T01:18:18.678Z,3.25
2022-10-25T01:21:22.269Z,4.78
2022-10-25T01:24:15.615Z,4.72
2022-10-25T01:27:00.220Z,4.75
2022-10-25T01:29:52.644Z,4.55
2022-10-25T01:32:29.109Z,3.83
2022-10-25T01:35:04.291Z,2.72
2022-10-25T01:37:42.239Z,4.85
2022-10-25T01:40:19.287Z,5.68
2022-10-25T01:42:54.699Z,8.23
2022-10-25T01:45:28.805Z,2.67
2022-10-25T01:48:04.452Z,6.95
2022-10-25T01:50:34.190Z,3.88
2022-10-25T01:53:01.894Z,6.10
2022-10-25T01:55:36.070Z,3.58
2022-10-25T01:58:14.234Z,3.35
2022-10-25T02:00:54.759Z,4.65
2022-10-25T02:03:31.409Z,5.72
2022-10-25T02:06:14.950Z,3.75
2022-10-25T02:08:48.260Z,3.08
2022-10-25T02:11:25.115Z,4.60
2022-10-25T02:14:01.343Z,5.80
2022-10-25T02:16:33.278Z,3.08
2022-10-25T02:19:05.822Z,2.10
2022-10-25T02:21:36.575Z,2.80
2022-10-25T02:24:08.486Z,4.03
2022-10-25T02:26:37.772Z,4.88
2022-10-25T02:29:07.785Z,5.60
2022-10-25T02:31:37.243Z,6.88
2022-10-25T02:34:06.700Z,5.95
2022-10-25T02:36:34.926Z,7.68
2022-10-25T02:39:03.729Z,5.70
2022-10-25T02:41:31.701Z,6.30
2022-10-25T02:43:59.402Z,5.88
2022-10-25T02:46:27.093Z,3.50
2022-10-25T02:48:54.827Z,3.83
2022-10-25T02:51:23.948Z,3.03
2022-10-25T02:53:51.576Z,5.15
2022-10-25T02:56:21.445Z,6.22
2022-10-25T02:58:51.260Z,5.63
2022-10-25T03:01:21.523Z,3.45
2022-10-25T03:03:49.592Z,3.92
2022-10-25T03:06:18.170Z,2.67
2022-10-25T03:08:47.545Z,4.72
2022-10-25T03:11:17.502Z,3.72
2022-10-25T03:13:45.399Z,4.57
2022-10-25T03:16:13.422Z,6.32
2022-10-25T03:18:40.995Z,4.70
2022-10-25T03:21:08.675Z,5.93
2022-10-25T03:23:36.635Z,4.07
2022-10-25T03:26:06.285Z,3.75
2022-10-25T03:28:33.901Z,3.55
2022-10-25T03:31:01.601Z,4.03
2022-10-25T03:33:32.328Z,3.65
2022-10-25T03:36:00.292Z,6.97
2022-10-25T03:38:27.903Z,16.48
2022-10-25T03:40:55.582Z,3.70
2022-10-25T03:43:24.947Z,7.38
2022-10-25T03:45:52.558Z,4.00
2022-10-25T03:48:20.376Z,6.80
2022-10-25T03:50:48.113Z,6.70
2022-10-25T03:53:15.811Z,9.50
2022-10-25T03:55:43.590Z,5.60
2022-10-25T03:58:11.733Z,6.70
2022-10-25T04:00:40.871Z,8.05
2022-10-25T04:03:10.324Z,3.47
2022-10-25T04:05:38.181Z,4.93
2022-10-25T04:08:06.322Z,7.38
2022-10-25T04:10:34.405Z,6.82
2022-10-25T04:13:02.079Z,7.03
2022-10-25T04:15:29.711Z,3.35
2022-10-25T04:17:58.851Z,3.35
2022-10-25T04:20:26.526Z,7.82
2022-10-25T04:22:56.185Z,4.57
2022-10-25T04:25:24.943Z,7.50
2022-10-25T04:27:52.630Z,4.35
2022-10-25T04:30:20.434Z,8.32
2022-10-25T04:32:48.328Z,6.78
2022-10-25T04:35:17.657Z,5.90
2022-10-25T04:37:45.394Z,6.03
2022-10-25T04:40:13.831Z,6.20
2022-10-25T04:42:41.481Z,7.88
2022-10-25T04:45:10.327Z,7.55
2022-10-25T04:47:38.261Z,6.75
2022-10-25T04:50:07.143Z,9.20
2022-10-25T04:52:36.213Z,5.10
2022-10-25T04:55:04.691Z,4.55
2022-10-25T04:57:32.337Z,7.47
2022-10-25T05:00:00.058Z,5.00
2022-10-25T05:02:27.831Z,6.60
2022-10-25T05:04:55.546Z,11.32
2022-10-25T05:07:23.249Z,3.58
2022-10-25T05:09:52.252Z,7.13
2022-10-25T05:12:20.281Z,8.20
2022-10-25T05:14:47.919Z,4.50
2022-10-25T05:17:15.970Z,6.55
2022-10-25T05:19:43.850Z,6.43
2022-10-25T05:22:11.540Z,10.23
2022-10-25T05:24:39.530Z,6.63
2022-10-25T05:27:08.812Z,5.10
2022-10-25T05:29:36.582Z,7.00
2022-10-25T05:32:04.510Z,6.93
2022-10-25T05:34:32.235Z,9.48
2022-10-25T05:37:00.372Z,5.15
2022-10-25T05:39:28.243Z,6.70
2022-10-25T05:41:56.220Z,8.50
2022-10-25T05:44:25.391Z,7.35
2022-10-25T05:46:53.005Z,5.18
2022-10-25T05:49:20.779Z,5.43
2022-10-25T05:51:48.428Z,4.68
2022-10-25T05:54:16.701Z,5.43
2022-10-25T05:56:44.478Z,4.20
2022-10-25T05:59:14.447Z,3.80
2022-10-25T06:01:45.462Z,5.47
2022-10-25T06:04:14.310Z,6.97
2022-10-25T06:06:43.231Z,6.03
2022-10-25T06:09:11.248Z,7.38
2022-10-25T06:11:39.687Z,8.43
2022-10-25T06:14:07.691Z,6.18
2022-10-25T06:16:38.151Z,4.65
2022-10-25T06:19:07.748Z,6.13
2022-10-25T06:21:35.834Z,5.88
2022-10-25T06:24:04.201Z,8.02
2022-10-25T06:26:32.099Z,8.00
2022-10-25T06:29:01.351Z,5.35
2022-10-25T06:31:46.862Z,6.90
2022-10-25T06:34:15.929Z,9.68
2022-10-25T06:36:44.166Z,7.93
2022-10-25T06:39:13.869Z,8.93
2022-10-25T06:41:42.096Z,5.97
2022-10-25T06:44:10.090Z,8.50
2022-10-25T06:49:28.883Z,6.32
2022-10-25T06:51:56.865Z,3.90
2022-10-25T06:54:26.589Z,6.93
2022-10-25T06:56:54.345Z,7.95
2022-10-25T06:59:22.091Z,7.53
2022-10-25T07:01:50.367Z,8.68
2022-10-25T07:04:18.198Z,6.72
2022-10-25T07:06:50.037Z,5.72
2022-10-25T07:09:20.786Z,5.95
2022-10-25T07:11:48.726Z,6.40
2022-10-25T07:14:16.535Z,11.10
2022-10-25T07:16:44.237Z,10.18
2022-10-25T07:19:11.919Z,12.60
2022-10-25T07:21:39.593Z,8.93
2022-10-25T07:24:11.053Z,9.20
2022-10-25T07:26:40.289Z,10.18
2022-10-25T07:29:08.106Z,8.32
2022-10-25T07:31:38.054Z,6.78
2022-10-25T07:34:06.990Z,7.38
2022-10-25T07:36:35.264Z,9.05
2022-10-25T07:39:03.019Z,6.78
2022-10-25T07:41:32.016Z,6.22
2022-10-25T07:44:00.101Z,9.73
2022-10-25T07:46:27.751Z,9.90
2022-10-25T07:48:55.373Z,8.00
2022-10-25T07:51:23.070Z,6.95
2022-10-25T07:53:51.587Z,9.10
2022-10-25T07:56:23.429Z,5.75
2022-10-25T07:58:53.455Z,11.73
2022-10-25T08:01:23.509Z,7.25
2022-10-25T08:03:51.881Z,7.45
2022-10-25T08:06:20.679Z,7.18
2022-10-25T08:08:48.876Z,9.27
2022-10-25T08:11:17.246Z,6.82
2022-10-25T08:13:46.690Z,8.80
2022-10-25T08:16:16.110Z,11.90
2022-10-25T08:18:44.148Z,9.15
2022-10-25T08:21:12.403Z,9.05
2022-10-25T08:23:40.949Z,8.68
2022-10-25T08:26:08.557Z,6.53
2022-10-25T08:28:36.996Z,11.02
2022-10-25T08:31:04.954Z,5.72
2022-10-25T08:33:34.743Z,6.95
2022-10-25T08:36:09.157Z,5.95
2022-10-25T08:38:37.896Z,6.50
2022-10-25T08:41:10.463Z,7.07
2022-10-25T08:44:08.698Z,8.00
2022-10-25T08:46:40.918Z,7.93
2022-10-25T08:49:17.991Z,5.60
2022-10-25T08:51:48.590Z,5.90
2022-10-25T08:54:25.180Z,5.53
2022-10-25T08:57:14.667Z,8.38
2022-10-25T08:59:46.450Z,5.85
2022-10-25T09:02:21.632Z,5.88
2022-10-25T09:04:51.136Z,5.55
2022-10-25T09:07:49.741Z,5.03
2022-10-25T09:10:29.591Z,6.22
2022-10-25T09:13:08.394Z,7.32
2022-10-25T09:15:54.417Z,5.43
2022-10-25T09:18:31.869Z,6.28
2022-10-25T09:21:06.785Z,7.72
2022-10-25T09:23:36.624Z,4.82
2022-10-25T09:26:10.232Z,6.15
2022-10-25T09:28:52.051Z,5.93
2022-10-25T09:31:24.409Z,6.70
2022-10-25T09:34:01.511Z,10.70
2022-10-25T09:36:38.189Z,4.65
2022-10-25T09:39:15.724Z,6.53
2022-10-25T09:41:47.616Z,7.40
2022-10-25T09:44:21.031Z,9.10
2022-10-25T09:46:55.261Z,12.02
2022-10-25T09:49:28.542Z,6.22
2022-10-25T09:52:03.993Z,8.20
2022-10-25T09:54:36.291Z,6.20
2022-10-25T09:57:04.603Z,5.22
2022-10-25T09:59:32.531Z,9.98
2022-10-25T10:02:02.183Z,7.05
2022-10-25T10:04:35.668Z,7.70
2022-10-25T10:07:12.872Z,4.13
2022-10-25T10:09:45.676Z,4.95
2022-10-25T10:12:19.723Z,4.90
2022-10-25T10:14:54.614Z,3.75
2022-10-25T10:17:23.214Z,3.67
2022-10-25T10:20:12.303Z,4.97
2022-10-25T10:22:46.576Z,8.98
2022-10-25T10:25:17.745Z,5.40
2022-10-25T10:27:48.938Z,9.57
2022-10-25T10:30:38.812Z,5.70
2022-10-25T10:33:09.462Z,6.40
2022-10-25T10:35:38.201Z,6.20
2022-10-25T10:38:22.434Z,4.22
2022-10-25T10:40:55.791Z,7.30
2022-10-25T10:43:29.074Z,3.92
2022-10-25T10:46:03.737Z,9.13
2022-10-25T10:48:41.902Z,12.90
2022-10-25T10:51:31.881Z,9.55
2022-10-25T10:54:13.851Z,10.50
2022-10-25T10:56:41.497Z,8.57
2022-10-25T10:59:30.678Z,8.60
2022-10-25T11:01:58.962Z,5.30
2022-10-25T11:04:26.930Z,4.55
2022-10-25T11:06:54.580Z,6.30
2022-10-25T11:09:26.317Z,11.15
2022-10-25T11:12:07.446Z,5.97
2022-10-25T11:14:35.424Z,5.65
2022-10-25T11:17:09.504Z,4.15
2022-10-25T11:19:52.352Z,6.00
2022-10-25T11:22:43.644Z,10.13
2022-10-25T11:25:22.558Z,5.53
2022-10-25T11:28:07.296Z,6.18
2022-10-25T11:30:43.449Z,7.28
2022-10-25T11:33:29.181Z,12.90
2022-10-25T11:36:09.981Z,8.90
2022-10-25T11:38:52.267Z,8.50
2022-10-25T11:41:32.791Z,5.18
2022-10-25T11:44:22.641Z,4.38
2022-10-25T11:46:58.181Z,4.28
2022-10-25T11:49:40.647Z,5.75
2022-10-25T11:52:25.491Z,4.07
2022-10-25T11:55:05.804Z,5.57
2022-10-25T11:57:46.367Z,5.15
2022-10-25T12:00:18.423Z,6.93
2022-10-25T12:03:00.751Z,6.10
2022-10-25T12:05:35.532Z,7.95
2022-10-25T12:08:19.870Z,15.15
2022-10-25T12:10:51.009Z,5.40
2022-10-25T12:13:23.995Z,6.72
2022-10-25T12:15:55.343Z,9.20
2022-10-25T12:18:26.945Z,5.88
2022-10-25T12:20:55.590Z,6.88
2022-10-25T12:23:26.342Z,4.35
2022-10-25T12:25:58.092Z,6.22
2022-10-25T12:28:33.453Z,3.65
2022-10-25T12:31:11.023Z,4.03
2022-10-25T12:33:42.770Z,5.60
2022-10-25T12:36:16.954Z,6.47
2022-10-25T12:38:44.874Z,6.68
2022-10-25T12:41:20.100Z,5.13
2022-10-25T12:44:00.310Z,6.57
2022-10-25T12:46:43.720Z,4.75
2022-10-25T12:49:27.614Z,6.25
2022-10-25T12:52:07.901Z,3.42
2022-10-25T12:54:58.654Z,4.78
2022-10-25T12:57:33.617Z,3.38
2022-10-25T13:00:11.315Z,6.30
2022-10-25T13:03:04.704Z,2.38
2022-10-25T13:06:10.019Z,2.50
2022-10-25T13:08:40.696Z,2.20
2022-10-25T13:11:10.305Z,1.88
2022-10-25T13:13:41.933Z,1.85
2022-10-25T13:16:11.681Z,2.15
2022-10-25T13:18:43.028Z,2.50
2022-10-25T13:21:12.817Z,1.45
2022-10-25T13:24:02.865Z,2.80
2022-10-25T13:26:49.881Z,2.38
2022-10-25T13:29:47.893Z,1.10
2022-10-25T13:32:19.629Z,2.80
2022-10-25T13:34:48.447Z,4.43
2022-10-25T13:37:49.216Z,2.95
2022-10-25T13:40:28.374Z,2.55
2022-10-25T13:43:02.679Z,3.70
2022-10-25T13:45:42.949Z,3.42
2022-10-25T13:48:21.646Z,3.83
2022-10-25T13:50:54.216Z,2.42
2022-10-25T13:53:26.276Z,2.55
2022-10-25T13:56:01.094Z,3.15
2022-10-25T13:58:45.283Z,2.78
2022-10-25T14:01:58.065Z,2.65
2022-10-25T14:04:40.894Z,3.13
2022-10-25T14:07:51.618Z,4.85
2022-10-25T14:10:27.678Z,3.17
2022-10-25T14:13:03.291Z,2.70
2022-10-25T14:15:40.798Z,4.80
2022-10-25T14:18:18.750Z,2.33
2022-10-25T14:20:50.601Z,3.67
2022-10-25T14:23:22.571Z,2.33
2022-10-25T14:25:54.404Z,2.90
2022-10-25T14:28:24.447Z,4.95
2022-10-25T14:30:55.520Z,2.97
2022-10-25T14:33:26.309Z,5.45
2022-10-25T14:35:58.871Z,3.20
2022-10-25T14:38:28.689Z,2.75
2022-10-25T14:40:58.694Z,1.88
2022-10-25T14:43:30.360Z,1.40
2022-10-25T14:46:04.744Z,3.63
2022-10-25T14:48:33.459Z,2.20
2022-10-25T14:51:09.102Z,5.35
2022-10-25T14:53:58.950Z,6.28
2022-10-25T14:56:31.126Z,19.38
2022-10-25T14:59:00.652Z,9.82
2022-10-25T15:01:28.946Z,12.93
2022-10-25T15:03:59.125Z,9.50
2022-10-25T15:06:30.783Z,3.90
2022-10-25T15:09:37.002Z,4.72
2022-10-25T15:12:07.314Z,4.32
2022-10-25T15:14:36.317Z,4.43
2022-10-25T15:17:05.687Z,2.30
2022-10-25T15:19:33.758Z,4.97
2022-10-25T15:22:16.183Z,4.07
2022-10-25T15:24:45.759Z,2.92
2022-10-25T15:27:27.819Z,2.38
2022-10-25T15:29:56.007Z,3.50
2022-10-25T15:32:26.354Z,5.82
2022-10-25T15:34:55.500Z,6.32
2022-10-25T15:37:26.402Z,10.73
2022-10-25T15:39:55.702Z,5.82
2022-10-25T15:42:25.257Z,4.70
2022-10-25T15:44:53.151Z,7.18
2022-10-25T15:47:31.544Z,3.47
2022-10-25T15:50:00.779Z,3.00
2022-10-25T15:52:30.303Z,2.50
2022-10-25T15:54:58.176Z,2.97
2022-10-25T15:57:27.332Z,3.45
2022-10-25T15:59:55.445Z,3.92
2022-10-25T16:02:26.960Z,3.13
2022-10-25T16:04:55.302Z,2.70
2022-10-25T16:07:23.394Z,2.33
2022-10-25T16:09:52.532Z,6.20
2022-10-25T16:12:24.702Z,5.20
2022-10-25T16:14:53.876Z,1.90
2022-10-25T16:17:21.693Z,3.97
2022-10-25T16:19:49.591Z,4.30
2022-10-25T16:22:18.369Z,5.97
2022-10-25T16:24:46.347Z,7.95
2022-10-25T16:27:16.128Z,7.95
2022-10-25T16:29:44.243Z,7.68
2022-10-25T16:32:12.078Z,10.32
2022-10-25T16:34:42.329Z,6.75
2022-10-25T16:37:11.965Z,5.35
2022-10-25T16:39:39.782Z,2.88
2022-10-25T16:42:28.101Z,3.85
2022-10-25T16:44:55.754Z,7.22
2022-10-25T16:47:23.885Z,3.80
2022-10-25T16:49:52.042Z,3.92
2022-10-25T16:52:20.801Z,4.47
2022-10-25T16:54:48.759Z,5.72
2022-10-25T16:57:16.785Z,4.93
2022-10-25T16:59:46.099Z,3.85
2022-10-25T17:02:18.576Z,4.75
2022-10-25T17:04:46.438Z,6.35
2022-10-25T17:07:14.210Z,6.88
2022-10-25T17:09:43.055Z,9.77
2022-10-25T17:12:11.230Z,12.02
2022-10-25T17:14:39.099Z,8.15
2022-10-25T17:17:08.138Z,8.93
2022-10-25T17:19:36.407Z,6.85
2022-10-25T17:22:04.439Z,9.25
2022-10-25T17:24:36.080Z,7.75
2022-10-25T17:29:36.575Z,9.10
2022-10-25T17:32:04.598Z,6.32
2022-10-25T17:34:33.789Z,6.57
2022-10-25T17:37:03.012Z,8.15
2022-10-25T17:39:30.907Z,6.57
2022-10-25T17:41:59.113Z,6.22
2022-10-25T17:44:27.053Z,7.25
2022-10-25T17:46:56.397Z,5.40
2022-10-25T17:49:26.403Z,8.30
2022-10-25T17:51:56.150Z,7.25
2022-10-25T17:54:24.067Z,9.80
2022-10-25T17:56:55.658Z,5.35
2022-10-25T17:59:23.537Z,7.55
2022-10-25T18:01:51.423Z,7.00
2022-10-25T18:04:19.222Z,6.97
2022-10-25T18:06:46.991Z,9.73
2022-10-25T18:09:16.328Z,9.55
2022-10-25T18:11:45.371Z,7.43
2022-10-25T18:14:13.214Z,8.35
2022-10-25T18:16:41.413Z,18.35
2022-10-25T18:19:13.609Z,14.60
2022-10-25T18:21:41.577Z,9.93
2022-10-25T18:24:09.466Z,9.48
2022-10-25T18:26:38.591Z,10.27
2022-10-25T18:29:06.322Z,8.90
2022-10-25T18:31:34.522Z,8.52
2022-10-25T18:34:04.416Z,9.75
2022-10-25T18:36:32.775Z,13.13
2022-10-25T18:39:00.782Z,10.93
2022-10-25T18:41:31.859Z,12.75
2022-10-25T18:44:02.455Z,11.68
2022-10-25T18:46:31.887Z,10.82
2022-10-25T18:49:00.026Z,8.27
2022-10-25T18:51:29.333Z,9.15
2022-10-25T18:53:58.828Z,9.88
2022-10-25T18:56:27.545Z,7.97
2022-10-25T18:58:56.784Z,10.32
2022-10-25T19:01:32.128Z,17.77
2022-10-25T19:04:01.376Z,11.10
2022-10-25T19:06:29.541Z,13.63
2022-10-25T19:08:57.626Z,10.82
2022-10-25T19:11:25.638Z,12.77
2022-10-25T19:13:54.940Z,13.57
2022-10-25T19:16:23.479Z,12.57
2022-10-25T19:18:53.048Z,13.48
2022-10-25T19:21:22.492Z,14.20
2022-10-25T19:23:54.115Z,10.95
2022-10-25T19:26:23.341Z,7.93
2022-10-25T19:28:57.503Z,11.82
2022-10-25T19:31:27.207Z,12.02
2022-10-25T19:34:00.301Z,9.07
2022-10-25T19:36:29.565Z,11.20
2022-10-25T19:38:57.726Z,10.77
2022-10-25T19:41:26.647Z,18.95
2022-10-25T19:43:56.447Z,11.45
2022-10-25T19:46:24.535Z,12.20
2022-10-25T19:48:52.695Z,11.20
2022-10-25T19:51:22.393Z,9.15
2022-10-25T19:53:51.117Z,10.25
2022-10-25T19:56:21.149Z,8.82
2022-10-25T19:58:49.785Z,10.88
2022-10-25T20:01:20.107Z,11.35
2022-10-25T20:03:50.944Z,12.27
2022-10-25T20:06:24.605Z,8.55
2022-10-25T20:08:53.839Z,10.52
2022-10-25T20:11:23.569Z,10.07
2022-10-25T20:13:54.258Z,10.90
2022-10-25T20:16:22.815Z,10.43
2022-10-25T20:18:50.685Z,7.93
2022-10-25T20:21:21.984Z,7.53
2022-10-25T20:23:55.451Z,9.93
2022-10-25T20:26:26.574Z,7.05
2022-10-25T20:28:55.951Z,12.23
2022-10-25T20:31:24.827Z,11.13
2022-10-25T20:33:53.719Z,10.57
2022-10-25T20:36:24.044Z,13.35
2022-10-25T20:38:52.180Z,11.80
2022-10-25T20:41:22.677Z,10.95
2022-10-25T20:43:52.778Z,10.25
2022-10-25T20:46:22.366Z,9.20
2022-10-25T20:48:51.837Z,9.57
2022-10-25T20:51:20.310Z,11.07
2022-10-25T20:53:49.892Z,7.78
2022-10-25T20:56:19.432Z,7.88
2022-10-25T20:58:47.914Z,11.25
2022-10-25T21:01:16.901Z,9.27
2022-10-25T21:03:45.015Z,9.38
2022-10-25T21:06:14.505Z,9.75
2022-10-25T21:08:42.759Z,9.55
2022-10-25T21:11:13.885Z,8.95
2022-10-25T21:13:41.891Z,6.97
2022-10-25T21:16:11.671Z,11.13
2022-10-25T21:18:39.888Z,8.60
2022-10-25T21:21:09.875Z,8.07
2022-10-25T21:23:38.270Z,9.70
2022-10-25T21:26:07.991Z,11.27
2022-10-25T21:28:39.233Z,9.68
2022-10-25T21:31:09.403Z,7.03
2022-10-25T21:33:37.247Z,9.63
2022-10-25T21:36:07.460Z,10.00
2022-10-25T21:38:35.467Z,6.57
2022-10-25T21:41:08.189Z,6.75
2022-10-25T21:43:38.023Z,7.35
2022-10-25T21:46:07.117Z,6.55
2022-10-25T21:48:36.115Z,8.68
2022-10-25T21:51:03.805Z,8.20
2022-10-25T21:53:31.910Z,11.52
2022-10-25T21:56:07.871Z,5.70
2022-10-25T21:58:37.218Z,9.48
2022-10-25T22:01:08.246Z,9.82
2022-10-25T22:03:36.105Z,12.23
2022-10-25T22:06:05.693Z,10.02
2022-10-25T22:08:33.445Z,7.80
2022-10-25T22:11:02.902Z,8.43
2022-10-25T22:13:30.896Z,6.97
2022-10-25T22:16:02.867Z,16.70
2022-10-25T22:18:30.531Z,8.98
2022-10-25T22:21:00.165Z,6.45
2022-10-25T22:23:30.006Z,8.55
2022-10-25T22:26:01.126Z,7.72
2022-10-25T22:28:28.986Z,9.15
2022-10-25T22:31:02.378Z,6.57
2022-10-25T22:33:30.213Z,8.95
2022-10-25T22:36:02.434Z,10.82
2022-10-25T22:38:30.262Z,7.75
2022-10-25T22:40:58.981Z,8.02
2022-10-25T22:43:27.566Z,8.45
2022-10-25T22:45:55.538Z,10.88
2022-10-25T22:48:24.777Z,10.52
2022-10-25T22:50:54.028Z,9.93
2022-10-25T22:53:23.131Z,8.80
2022-10-25T22:55:58.115Z,7.10
2022-10-25T22:58:27.258Z,8.00
2022-10-25T23:03:34.166Z,15.93
2022-10-25T23:06:03.127Z,9.63
2022-10-25T23:08:31.779Z,8.85
2022-10-25T23:11:01.754Z,8.95
2022-10-25T23:13:30.061Z,7.88
2022-10-25T23:15:58.062Z,9.55
2022-10-25T23:18:26.114Z,8.48
2022-10-25T23:20:57.370Z,10.65
2022-10-25T23:23:26.483Z,9.05
2022-10-25T23:25:55.142Z,10.82
2022-10-25T23:28:23.124Z,9.02
2022-10-25T23:30:50.879Z,9.88
2022-10-25T23:33:18.469Z,11.45
2022-10-25T23:35:46.278Z,9.27
2022-10-25T23:38:15.520Z,9.82
2022-10-25T23:40:47.838Z,11.35
2022-10-25T23:43:16.162Z,12.88
2022-10-25T23:45:43.908Z,7.47
2022-10-25T23:48:11.570Z,7.90
2022-10-25T23:50:39.741Z,9.05
2022-10-25T23:53:08.487Z,9.25
2022-10-25T23:55:38.584Z,7.88
2022-10-25T23:58:06.430Z,9.77
